Time;durP1;ratioP1;P1;durP2;ratioP2;P2;SDS_P1;SDS_P2;PMS_P1;PMS_P2;Temp;Humidity;BMP_temperature;BMP_pressure;BME280_temperature;BME280_humidity;BME280_pressure;Samples;Min_cycle;Max_cycle;Signal;HPM_P1;HPM_P2
2022/07/02 00:01:12;;;;;;;3.50;0.88;;;14.70;99.90;;;;;;5067248;28;20068;-58
2022/07/02 00:03:39;;;;;;;13.02;1.48;;;14.70;99.90;;;;;;5065830;28;20127;-57
2022/07/02 00:06:06;;;;;;;4.35;1.30;;;14.70;99.90;;;;;;5066972;28;20064;-58
2022/07/02 00:08:33;;;;;;;8.43;2.08;;;14.70;99.90;;;;;;5066763;28;20050;-57
2022/07/02 00:11:03;;;;;;;9.00;1.55;;;14.60;99.90;;;;;;5067617;28;20123;-58
2022/07/02 00:13:30;;;;;;;7.00;1.35;;;14.50;99.90;;;;;;5066033;28;20052;-56
2022/07/02 00:15:57;;;;;;;6.88;1.55;;;14.50;99.90;;;;;;5067482;28;20048;-58
2022/07/02 00:18:24;;;;;;;8.35;1.45;;;14.50;99.90;;;;;;5066854;28;20076;-58
2022/07/02 00:20:51;;;;;;;9.00;1.88;;;14.50;99.90;;;;;;5067331;28;20348;-58
2022/07/02 00:23:17;;;;;;;9.55;1.77;;;14.40;99.90;;;;;;5066678;28;20515;-57
2022/07/02 00:25:52;;;;;;;11.63;1.55;;;14.40;99.90;;;;;;5066959;28;20165;-58
2022/07/02 00:28:18;;;;;;;10.45;1.92;;;14.50;99.90;;;;;;5066684;28;20076;-58
2022/07/02 00:30:46;;;;;;;7.13;1.50;;;14.40;99.90;;;;;;5067246;28;20079;-55
2022/07/02 00:33:13;;;;;;;4.65;1.33;;;14.40;99.90;;;;;;5066746;28;20522;-55
2022/07/02 00:35:41;;;;;;;4.38;0.95;;;14.30;99.90;;;;;;5066726;28;20131;-57
2022/07/02 00:38:08;;;;;;;9.82;1.42;;;14.30;99.90;;;;;;5067001;28;20052;-57
2022/07/02 00:40:35;;;;;;;5.93;1.50;;;14.30;99.90;;;;;;5067426;28;20048;-58
2022/07/02 00:43:02;;;;;;;7.47;1.50;;;14.30;99.90;;;;;;5065808;28;20048;-58
2022/07/02 00:45:29;;;;;;;7.53;1.42;;;14.30;99.90;;;;;;5066965;28;20055;-57
2022/07/02 00:47:56;;;;;;;5.60;1.30;;;14.30;99.90;;;;;;5065462;28;20048;-58
2022/07/02 00:50:23;;;;;;;11.40;1.42;;;14.30;99.90;;;;;;5066564;28;20079;-56
2022/07/02 00:52:50;;;;;;;5.72;1.35;;;14.20;99.90;;;;;;5066448;28;20076;-57
2022/07/02 00:55:16;;;;;;;9.10;1.95;;;14.30;99.90;;;;;;5066630;28;20045;-59
2022/07/02 00:57:45;;;;;;;7.38;1.55;;;14.20;99.90;;;;;;5066851;28;20084;-57
2022/07/02 01:00:16;;;;;;;10.60;1.88;;;14.20;99.90;;;;;;5066718;28;20068;-56
2022/07/02 01:02:44;;;;;;;8.57;1.98;;;14.20;99.90;;;;;;5066788;28;20531;-60
2022/07/02 01:05:14;;;;;;;9.43;1.30;;;14.30;99.90;;;;;;5065496;28;20079;-57
2022/07/02 01:07:43;;;;;;;6.45;1.23;;;14.30;99.90;;;;;;5065335;28;20582;-58
2022/07/02 01:10:19;;;;;;;9.13;3.05;;;14.20;99.90;;;;;;5064765;28;20128;-57
2022/07/02 01:12:48;;;;;;;4.97;1.35;;;14.20;99.90;;;;;;5065280;28;20143;-57
2022/07/02 01:15:15;;;;;;;3.22;0.95;;;14.30;99.90;;;;;;5065946;28;20087;-56
2022/07/02 01:17:42;;;;;;;11.65;2.20;;;14.30;99.90;;;;;;4715404;28;10000278;-57
2022/07/02 01:20:09;;;;;;;8.80;2.20;;;14.20;99.90;;;;;;5065095;28;20094;-57
2022/07/02 01:22:37;;;;;;;12.57;2.92;;;14.20;99.90;;;;;;5070125;28;20047;-57
2022/07/02 01:25:05;;;;;;;15.32;4.28;;;14.20;99.90;;;;;;5069988;28;20040;-57
2022/07/02 01:27:32;;;;;;;8.45;2.00;;;14.20;99.90;;;;;;5070070;28;20109;-58
2022/07/02 01:29:58;;;;;;;12.68;1.90;;;14.10;99.90;;;;;;5068757;28;20040;-58
2022/07/02 01:32:25;;;;;;;9.73;2.83;;;14.10;99.90;;;;;;5069365;28;20072;-57
2022/07/02 01:34:53;;;;;;;6.03;1.30;;;14.10;99.90;;;;;;5069789;28;20048;-58
2022/07/02 01:37:21;;;;;;;7.97;1.92;;;14.20;99.90;;;;;;5069629;28;20495;-58
2022/07/02 01:39:48;;;;;;;11.27;2.75;;;14.20;99.90;;;;;;5069673;28;20057;-57
2022/07/02 01:42:15;;;;;;;9.10;1.50;;;14.10;99.90;;;;;;5069456;28;20049;-57
2022/07/02 01:44:43;;;;;;;13.35;2.78;;;14.10;99.90;;;;;;5069581;28;20495;-57
2022/07/02 01:47:10;;;;;;;11.35;1.95;;;14.10;99.90;;;;;;5058717;28;20051;-56
2022/07/02 01:49:37;;;;;;;10.52;1.92;;;14.10;99.90;;;;;;5069733;28;20131;-57
2022/07/02 01:52:04;;;;;;;12.43;1.80;;;14.00;99.90;;;;;;5069342;28;20044;-57
2022/07/02 01:54:32;;;;;;;8.82;2.22;;;14.00;99.90;;;;;;5068396;28;20076;-57
2022/07/02 01:56:59;;;;;;;8.45;2.70;;;14.10;99.90;;;;;;5069412;28;20127;-58
2022/07/02 01:59:26;;;;;;;10.00;2.40;;;14.00;99.90;;;;;;5069157;28;20152;-53
2022/07/02 02:01:53;;;;;;;7.57;2.63;;;14.10;99.90;;;;;;5069337;28;20439;-57
2022/07/02 02:04:19;;;;;;;11.93;2.15;;;14.00;99.90;;;;;;5067042;28;20158;-56
2022/07/02 02:06:46;;;;;;;11.48;1.90;;;14.00;99.90;;;;;;5067499;28;20052;-58
2022/07/02 02:09:13;;;;;;;11.38;1.98;;;14.00;99.90;;;;;;5065694;28;20083;-58
2022/07/02 02:11:40;;;;;;;8.80;1.42;;;14.00;99.90;;;;;;5068944;28;20557;-55
2022/07/02 02:14:06;;;;;;;4.35;1.73;;;13.90;99.90;;;;;;5068257;28;20084;-57
2022/07/02 02:16:33;;;;;;;11.13;2.28;;;13.90;99.90;;;;;;5069351;28;20080;-56
2022/07/02 02:19:00;;;;;;;7.15;2.05;;;13.80;99.90;;;;;;5069320;28;20044;-56
2022/07/02 02:21:28;;;;;;;4.15;1.77;;;13.80;99.90;;;;;;5067616;28;20094;-56
2022/07/02 02:23:55;;;;;;;9.73;2.30;;;13.80;99.90;;;;;;5068774;28;20080;-56
2022/07/02 02:26:22;;;;;;;5.82;1.50;;;13.70;99.90;;;;;;5068507;28;20067;-57
2022/07/02 02:28:49;;;;;;;8.05;1.90;;;13.70;99.90;;;;;;5047541;28;20065;-58
2022/07/02 02:31:15;;;;;;;8.80;1.67;;;13.80;99.90;;;;;;5063304;28;20706;-59
2022/07/02 02:33:42;;;;;;;14.02;3.15;;;13.80;99.90;;;;;;5058289;28;20503;-60
2022/07/02 02:36:09;;;;;;;5.28;1.60;;;13.70;99.90;;;;;;5068427;28;20136;-58
2022/07/02 02:38:36;;;;;;;12.35;1.80;;;13.70;99.90;;;;;;5068688;28;20092;-58
2022/07/02 02:41:07;;;;;;;8.68;1.65;;;13.80;99.90;;;;;;5067222;28;20037;-56
2022/07/02 02:43:34;;;;;;;6.95;2.03;;;13.70;99.90;;;;;;5068573;28;20083;-58
2022/07/02 02:46:01;;;;;;;10.45;1.27;;;13.70;99.90;;;;;;5057738;28;20044;-58
2022/07/02 02:48:28;;;;;;;9.55;3.20;;;13.70;99.90;;;;;;5068117;28;20052;-58
2022/07/02 02:50:55;;;;;;;8.77;1.85;;;13.70;99.90;;;;;;5068377;28;20558;-57
2022/07/02 02:53:22;;;;;;;8.10;1.67;;;13.70;99.90;;;;;;5067678;28;20137;-57
2022/07/02 02:55:49;;;;;;;15.48;2.95;;;13.70;99.90;;;;;;5068171;28;20079;-58
2022/07/02 02:58:16;;;;;;;10.18;1.38;;;13.60;99.90;;;;;;5067855;28;20072;-57
2022/07/02 03:00:43;;;;;;;8.30;1.27;;;13.60;99.90;;;;;;5067863;28;20137;-58
2022/07/02 03:03:10;;;;;;;5.80;1.20;;;13.60;99.90;;;;;;5067944;28;20049;-57
2022/07/02 03:05:36;;;;;;;7.20;1.65;;;13.50;99.90;;;;;;5068137;28;20045;-57
2022/07/02 03:08:03;;;;;;;10.73;3.08;;;13.50;99.90;;;;;;5058764;28;20127;-58
2022/07/02 03:10:30;;;;;;;3.28;1.48;;;13.50;99.90;;;;;;5067657;28;20049;-58
2022/07/02 03:12:57;;;;;;;12.63;1.88;;;13.50;99.90;;;;;;5067692;28;20106;-54
2022/07/02 03:15:24;;;;;;;6.97;1.30;;;13.60;99.90;;;;;;5067526;28;20131;-57
2022/07/02 03:17:51;;;;;;;7.78;2.45;;;13.60;99.90;;;;;;5067810;28;20139;-56
2022/07/02 03:20:17;;;;;;;8.75;2.05;;;13.60;99.90;;;;;;5066379;28;20083;-59
2022/07/02 03:22:44;;;;;;;4.90;1.20;;;13.60;99.90;;;;;;5067744;28;20411;-58
2022/07/02 03:25:11;;;;;;;5.50;1.55;;;13.50;99.90;;;;;;5067287;28;20256;-58
2022/07/02 03:27:38;;;;;;;4.85;1.60;;;13.50;99.90;;;;;;5066478;28;20128;-56
2022/07/02 03:30:06;;;;;;;11.57;2.25;;;13.50;99.90;;;;;;5066461;28;20044;-55
2022/07/02 03:32:33;;;;;;;7.75;2.13;;;13.50;99.90;;;;;;5066417;28;20051;-56
2022/07/02 03:34:59;;;;;;;13.02;2.20;;;13.50;99.90;;;;;;5067478;28;20319;-56
2022/07/02 03:37:28;;;;;;;5.78;1.27;;;13.50;99.90;;;;;;5067345;28;20053;-57
2022/07/02 03:39:55;;;;;;;8.98;2.65;;;13.50;99.90;;;;;;5067637;28;20045;-57
2022/07/02 03:42:22;;;;;;;5.90;1.33;;;13.50;99.90;;;;;;5066689;28;20076;-57
2022/07/02 03:44:49;;;;;;;9.23;1.42;;;13.40;99.90;;;;;;5067659;28;20080;-57
2022/07/02 03:47:16;;;;;;;16.45;1.92;;;13.40;99.90;;;;;;5067131;28;20080;-58
2022/07/02 03:49:43;;;;;;;7.28;1.73;;;13.40;99.90;;;;;;5067425;28;20136;-56
2022/07/02 03:52:10;;;;;;;10.43;1.63;;;13.40;99.90;;;;;;5066916;28;20496;-57
2022/07/02 03:54:36;;;;;;;7.75;1.85;;;13.30;99.90;;;;;;5056082;28;20040;-56
2022/07/02 03:57:04;;;;;;;9.77;2.33;;;13.30;99.90;;;;;;5065971;28;20052;-56
2022/07/02 03:59:31;;;;;;;6.82;2.35;;;13.20;99.90;;;;;;5067354;28;20052;-57
2022/07/02 04:01:58;;;;;;;8.73;2.55;;;13.20;99.90;;;;;;5065260;28;20076;-54
2022/07/02 04:04:25;;;;;;;4.07;1.30;;;13.30;99.90;;;;;;5065255;28;20132;-58
2022/07/02 04:06:51;;;;;;;9.95;3.08;;;13.20;99.90;;;;;;5067321;28;20044;-57
2022/07/02 04:09:18;;;;;;;6.25;1.52;;;13.10;99.90;;;;;;5067256;28;20053;-57
2022/07/02 04:11:45;;;;;;;12.75;1.40;;;13.20;99.90;;;;;;5067302;28;20041;-59
2022/07/02 04:14:12;;;;;;;5.88;1.50;;;13.20;99.90;;;;;;5066785;28;20060;-56
2022/07/02 04:16:39;;;;;;;9.15;2.28;;;13.20;99.90;;;;;;5067393;28;20076;-56
2022/07/02 04:19:06;;;;;;;9.05;1.50;;;13.20;99.90;;;;;;5065900;28;20075;-56
2022/07/02 04:21:41;;;;;;;4.75;1.30;;;13.30;99.90;;;;;;5065971;28;20046;-58
2022/07/02 04:24:08;;;;;;;4.88;1.65;;;13.30;99.90;;;;;;5066922;28;20214;-57
2022/07/02 04:26:34;;;;;;;4.45;1.40;;;13.30;99.90;;;;;;5066596;28;20080;-57
2022/07/02 04:29:01;;;;;;;5.97;1.60;;;13.30;99.90;;;;;;5063670;28;20076;-57
2022/07/02 04:31:29;;;;;;;7.22;2.10;;;13.40;99.90;;;;;;5066709;28;20052;-56
2022/07/02 04:33:56;;;;;;;7.28;2.03;;;13.50;99.90;;;;;;5066697;28;20047;-56
2022/07/02 04:36:23;;;;;;;5.97;1.55;;;13.50;99.90;;;;;;5065671;28;20084;-59
2022/07/02 04:38:50;;;;;;;11.02;1.60;;;13.60;99.90;;;;;;5066708;28;20084;-57
2022/07/02 04:41:17;;;;;;;6.72;1.88;;;13.60;99.90;;;;;;5066448;28;20582;-55
2022/07/02 04:43:43;;;;;;;12.40;1.55;;;13.60;99.90;;;;;;5066938;28;20091;-57
2022/07/02 04:46:10;;;;;;;7.35;1.20;;;13.60;99.90;;;;;;5066460;28;20045;-57
2022/07/02 04:48:37;;;;;;;13.60;2.17;;;13.60;99.90;;;;;;5066917;28;20403;-57
2022/07/02 04:51:04;;;;;;;2.63;1.00;;;13.60;99.90;;;;;;5066702;28;20514;-58
2022/07/02 04:53:31;;;;;;;13.68;2.13;;;13.60;99.90;;;;;;5067487;28;20392;-58
2022/07/02 04:55:58;;;;;;;8.98;1.40;;;13.70;99.90;;;;;;5070648;28;20555;-56
2022/07/02 04:58:24;;;;;;;4.90;1.40;;;13.70;99.90;;;;;;5070499;28;20393;-58
2022/07/02 05:00:51;;;;;;;9.70;1.20;;;13.70;99.90;;;;;;5070410;28;20471;-56
2022/07/02 05:03:18;;;;;;;6.55;1.17;;;13.80;99.90;;;;;;5070415;28;20052;-58
2022/07/02 05:05:44;;;;;;;7.60;1.27;;;13.80;99.90;;;;;;5070392;28;20131;-55
2022/07/02 05:08:11;;;;;;;5.10;1.17;;;13.80;99.90;;;;;;5070007;28;20037;-55
2022/07/02 05:10:38;;;;;;;7.35;1.88;;;13.90;99.90;;;;;;5070314;28;20354;-56
2022/07/02 05:13:05;;;;;;;10.13;2.00;;;13.90;99.90;;;;;;5069863;28;20044;-57
2022/07/02 05:15:32;;;;;;;9.05;1.55;;;14.00;99.90;;;;;;5070475;28;20094;-57
2022/07/02 05:17:59;;;;;;;8.35;2.05;;;13.90;99.90;;;;;;5070458;28;20048;-53
2022/07/02 05:20:28;;;;;;;6.65;1.70;;;14.10;99.90;;;;;;5070165;28;20249;-57
2022/07/02 05:22:54;;;;;;;8.20;1.48;;;14.10;99.90;;;;;;5070214;28;20044;-62
2022/07/02 05:25:21;;;;;;;10.85;1.33;;;14.10;99.90;;;;;;5052039;28;20079;-58
2022/07/02 05:27:48;;;;;;;7.90;1.60;;;14.20;99.90;;;;;;5069896;28;20080;-56
2022/07/02 05:30:15;;;;;;;6.60;1.40;;;14.20;99.90;;;;;;5069743;28;20080;-56
2022/07/02 05:32:42;;;;;;;4.90;1.10;;;14.20;99.90;;;;;;5069965;28;20072;-59
2022/07/02 05:35:09;;;;;;;5.72;0.95;;;14.30;99.90;;;;;;5069725;28;20040;-57
2022/07/02 05:37:35;;;;;;;14.85;2.67;;;14.20;99.90;;;;;;5069758;28;20128;-57
2022/07/02 05:40:03;;;;;;;25.40;3.58;;;14.30;99.90;;;;;;5069738;28;20067;-57
2022/07/02 05:42:29;;;;;;;11.65;1.80;;;14.40;99.90;;;;;;5069691;28;20040;-57
2022/07/02 05:44:57;;;;;;;5.25;1.30;;;14.40;99.90;;;;;;5069854;28;20200;-58
2022/07/02 05:47:24;;;;;;;4.15;1.20;;;14.50;99.90;;;;;;5069693;28;20090;-58
2022/07/02 05:49:50;;;;;;;12.57;1.58;;;14.50;99.90;;;;;;5069825;28;20119;-59
2022/07/02 05:52:18;;;;;;;8.02;1.08;;;14.50;99.90;;;;;;5069619;28;20080;-59
2022/07/02 05:54:45;;;;;;;6.40;1.42;;;14.50;99.90;;;;;;5069231;28;20080;-59
2022/07/02 05:57:12;;;;;;;3.42;1.02;;;14.60;99.90;;;;;;5069433;28;20095;-58
2022/07/02 05:59:41;;;;;;;5.70;1.23;;;14.70;99.90;;;;;;5068046;28;20048;-58
2022/07/02 06:02:08;;;;;;;5.70;1.20;;;14.70;99.90;;;;;;5079544;28;20483;-59
2022/07/02 06:04:34;;;;;;;7.88;1.25;;;14.80;99.90;;;;;;5073533;28;20495;-58
2022/07/02 06:09:50;;;;;;;9.32;1.27;;;14.80;99.90;;;;;;5068597;28;20076;-59
2022/07/02 06:12:17;;;;;;;4.65;0.90;;;14.80;99.90;;;;;;5069733;28;20103;-59
2022/07/02 06:14:43;;;;;;;15.77;1.77;;;14.90;99.90;;;;;;5070015;28;20087;-60
2022/07/02 06:17:10;;;;;;;13.27;1.60;;;14.90;99.90;;;;;;5069188;28;20076;-59
2022/07/02 06:19:44;;;;;;;4.05;0.70;;;14.90;99.90;;;;;;5069188;28;20091;-57
2022/07/02 06:22:11;;;;;;;5.47;1.20;;;15.00;99.90;;;;;;5068845;28;20110;-58
2022/07/02 06:24:37;;;;;;;7.97;1.20;;;15.10;99.90;;;;;;5069245;28;20076;-58
2022/07/02 06:27:05;;;;;;;10.68;1.48;;;15.10;99.90;;;;;;5069054;28;20044;-59
2022/07/02 06:29:32;;;;;;;5.47;1.50;;;15.20;99.90;;;;;;5068296;28;20091;-58
2022/07/02 06:31:59;;;;;;;6.28;0.80;;;15.30;99.90;;;;;;5068868;28;20060;-59
2022/07/02 06:34:25;;;;;;;7.55;1.10;;;15.30;99.90;;;;;;5068984;28;20127;-58
2022/07/02 06:36:52;;;;;;;5.68;1.10;;;15.30;99.90;;;;;;5068989;28;20036;-59
2022/07/02 06:39:25;;;;;;;3.20;1.27;;;15.30;99.90;;;;;;5066823;28;20128;-60
2022/07/02 06:44:37;;;;;;;7.40;1.10;;;15.40;99.90;;;;;;5066796;28;20079;-58
2022/07/02 06:47:05;;;;;;;4.32;1.05;;;15.40;99.90;;;;;;5065133;28;20045;-57
2022/07/02 06:49:32;;;;;;;3.40;1.00;;;15.40;99.90;;;;;;5066379;28;20045;-59
2022/07/02 06:51:59;;;;;;;3.53;1.08;;;15.50;99.90;;;;;;5064716;28;20123;-58
2022/07/02 06:54:26;;;;;;;5.78;1.17;;;15.50;99.90;;;;;;5067498;28;20191;-60
2022/07/02 06:56:52;;;;;;;3.92;1.02;;;15.50;99.90;;;;;;5066446;28;20125;-57
2022/07/02 06:59:19;;;;;;;6.22;1.33;;;15.50;99.90;;;;;;5068333;28;20710;-58
2022/07/02 07:01:47;;;;;;;4.13;1.10;;;15.50;99.90;;;;;;5067541;28;20037;-59
2022/07/02 07:04:34;;;;;;;3.58;1.10;;;15.50;99.90;;;;;;5067944;28;20079;-58
2022/07/02 07:07:04;;;;;;;5.45;1.50;;;15.60;99.90;;;;;;5067676;28;20155;-59
2022/07/02 07:09:30;;;;;;;5.40;1.63;;;15.60;99.90;;;;;;5067479;28;20108;-59
2022/07/02 07:11:59;;;;;;;12.13;2.20;;;15.70;99.90;;;;;;5067546;28;20076;-59
2022/07/02 07:14:26;;;;;;;7.30;1.15;;;15.70;99.90;;;;;;5067862;28;20539;-57
2022/07/02 07:16:53;;;;;;;8.13;1.33;;;15.70;99.90;;;;;;5067362;28;20495;-57
2022/07/02 07:19:19;;;;;;;3.55;0.95;;;15.80;99.90;;;;;;5067388;28;20057;-59
2022/07/02 07:21:46;;;;;;;13.90;2.40;;;15.80;99.90;;;;;;5066981;28;20063;-58
2022/07/02 07:24:13;;;;;;;5.97;1.52;;;15.90;99.90;;;;;;5067031;28;20135;-58
2022/07/02 07:26:40;;;;;;;2.72;0.98;;;16.00;99.90;;;;;;5057851;28;20127;-59
2022/07/02 07:29:07;;;;;;;3.33;0.70;;;16.00;99.90;;;;;;5067181;28;20048;-58
2022/07/02 07:31:34;;;;;;;4.03;1.10;;;16.00;99.90;;;;;;5065512;28;20044;-58
2022/07/02 07:34:01;;;;;;;3.53;1.08;;;16.00;99.90;;;;;;5067526;28;20059;-59
2022/07/02 07:36:29;;;;;;;6.45;1.00;;;16.00;99.90;;;;;;5068579;28;20044;-60
2022/07/02 07:38:56;;;;;;;3.70;1.05;;;16.10;99.90;;;;;;5067338;28;20054;-59
2022/07/02 07:41:23;;;;;;;4.45;1.02;;;16.10;99.90;;;;;;4714431;28;10000414;-59
2022/07/02 07:43:51;;;;;;;7.20;1.15;;;16.10;99.90;;;;;;5064064;28;20040;-58
2022/07/02 07:46:22;;;;;;;5.20;0.80;;;16.20;99.90;;;;;;5064133;28;20547;-56
2022/07/02 07:48:50;;;;;;;2.58;0.90;;;16.20;99.90;;;;;;5061076;28;20606;-59
2022/07/02 07:51:17;;;;;;;4.72;0.90;;;16.30;99.90;;;;;;5064471;28;20542;-58
2022/07/02 07:53:44;;;;;;;2.25;0.70;;;16.40;99.90;;;;;;5067332;28;20120;-57
2022/07/02 07:56:17;;;;;;;8.73;1.52;;;16.60;99.90;;;;;;5073057;28;20574;-59
2022/07/02 07:58:44;;;;;;;4.97;1.02;;;16.70;99.90;;;;;;5072781;28;20068;-57
2022/07/02 08:01:11;;;;;;;5.55;0.80;;;16.80;99.90;;;;;;5062773;28;20048;-59
2022/07/02 08:03:38;;;;;;;4.07;0.93;;;17.00;99.90;;;;;;5063784;28;20114;-58
2022/07/02 08:06:05;;;;;;;0.88;0.55;;;17.00;99.90;;;;;;5063990;28;20044;-59
2022/07/02 08:08:32;;;;;;;3.83;0.85;;;17.10;99.90;;;;;;5061513;28;20059;-57
2022/07/02 08:10:59;;;;;;;7.90;2.17;;;17.10;99.90;;;;;;5064058;28;20052;-57
2022/07/02 08:13:26;;;;;;;4.57;1.00;;;17.20;99.90;;;;;;5064171;28;20242;-58
2022/07/02 08:15:52;;;;;;;5.95;0.90;;;17.30;99.90;;;;;;5064267;28;20088;-58
2022/07/02 08:18:19;;;;;;;3.60;0.90;;;17.40;99.90;;;;;;5063566;28;20040;-58
2022/07/02 08:20:46;;;;;;;3.40;0.68;;;17.40;99.90;;;;;;5063726;28;20132;-58
2022/07/02 08:23:14;;;;;;;6.72;1.13;;;17.50;99.90;;;;;;5062518;28;20123;-57
2022/07/02 08:25:41;;;;;;;3.67;0.93;;;17.50;99.90;;;;;;5062283;28;20094;-58
2022/07/02 08:28:08;;;;;;;1.90;0.70;;;17.50;99.90;;;;;;5062675;28;20041;-58
2022/07/02 08:30:34;;;;;;;5.20;0.80;;;17.60;99.90;;;;;;5066142;28;20049;-58
2022/07/02 08:33:01;;;;;;;2.88;1.15;;;17.60;99.90;;;;;;5066959;28;20048;-57
2022/07/02 08:35:28;;;;;;;4.60;0.77;;;17.60;99.90;;;;;;5067737;28;20131;-60
2022/07/02 08:37:55;;;;;;;2.03;0.60;;;17.80;99.90;;;;;;5070191;28;20044;-61
2022/07/02 08:40:26;;;;;;;2.47;0.70;;;17.90;99.20;;;;;;5070844;28;20053;-59
2022/07/02 08:42:53;;;;;;;2.63;0.88;;;18.10;99.90;;;;;;5071203;28;20123;-59
2022/07/02 08:45:21;;;;;;;7.95;1.20;;;18.10;98.90;;;;;;5069245;28;20082;-58
2022/07/02 08:47:51;;;;;;;4.50;0.70;;;18.20;99.90;;;;;;5070316;28;20044;-59
2022/07/02 08:50:18;;;;;;;4.22;0.63;;;18.30;99.90;;;;;;5068933;28;20079;-59
2022/07/02 08:52:45;;;;;;;5.03;0.93;;;18.40;99.70;;;;;;5067879;28;20041;-59
2022/07/02 08:55:14;;;;;;;4.75;0.80;;;18.50;99.70;;;;;;5066779;28;20068;-59
2022/07/02 08:57:41;;;;;;;1.80;0.60;;;18.60;99.50;;;;;;5068835;28;20063;-58
2022/07/02 09:00:08;;;;;;;1.67;0.75;;;18.60;98.60;;;;;;5067628;28;20110;-57
2022/07/02 09:02:35;;;;;;;4.05;0.80;;;18.60;98.40;;;;;;5067640;28;20040;-59
2022/07/02 09:05:03;;;;;;;2.22;0.68;;;18.60;98.00;;;;;;5069510;28;20079;-59
2022/07/02 09:07:30;;;;;;;3.60;0.73;;;18.70;98.60;;;;;;5070778;28;20071;-59
2022/07/02 09:09:57;;;;;;;3.95;0.70;;;18.70;94.70;;;;;;5052837;28;20128;-58
2022/07/02 09:12:24;;;;;;;4.25;0.75;;;18.80;96.20;;;;;;5070467;28;20131;-58
2022/07/02 09:14:53;;;;;;;1.90;0.50;;;18.80;97.60;;;;;;5068164;28;20045;-60
2022/07/02 09:17:20;;;;;;;8.57;1.30;;;18.90;97.40;;;;;;5060979;28;20076;-59
2022/07/02 09:19:47;;;;;;;2.20;0.50;;;19.00;96.80;;;;;;5069412;28;20139;-60
2022/07/02 09:22:14;;;;;;;2.80;1.55;;;19.00;95.80;;;;;;5070132;28;20079;-60
2022/07/02 09:24:42;;;;;;;0.77;0.45;;;19.10;96.50;;;;;;5064198;28;20052;-59
2022/07/02 09:27:14;;;;;;;2.03;0.70;;;19.10;95.20;;;;;;5070218;28;20047;-59
2022/07/02 09:29:49;;;;;;;3.85;0.52;;;19.10;92.90;;;;;;5070354;28;20056;-60
2022/07/02 09:32:16;;;;;;;1.48;0.60;;;19.20;94.20;;;;;;5066777;28;20555;-59
2022/07/02 09:34:50;;;;;;;3.53;0.60;;;19.30;94.30;;;;;;5070239;28;20048;-59
2022/07/02 09:37:21;;;;;;;2.42;0.90;;;19.20;94.00;;;;;;5069029;28;20068;-59
2022/07/02 09:39:49;;;;;;;4.63;0.75;;;19.30;93.20;;;;;;5058175;28;20075;-59
2022/07/02 09:42:29;;;;;;;13.40;1.85;;;19.40;95.20;;;;;;5068341;28;20129;-58
2022/07/02 09:44:57;;;;;;;1.35;0.52;;;19.60;94.20;;;;;;5070169;28;20083;-58
2022/07/02 09:47:31;;;;;;;4.05;0.65;;;19.70;94.60;;;;;;5069398;28;20098;-58
2022/07/02 09:50:01;;;;;;;2.38;0.70;;;19.70;93.70;;;;;;5069628;28;20076;-59
2022/07/02 09:52:28;;;;;;;2.53;0.90;;;19.70;92.50;;;;;;5069278;28;20074;-58
2022/07/02 09:54:55;;;;;;;1.73;0.77;;;19.70;92.70;;;;;;5070008;28;20075;-58
2022/07/02 09:57:21;;;;;;;2.95;1.33;;;19.70;92.10;;;;;;5068194;28;20175;-59
2022/07/02 09:59:48;;;;;;;7.10;1.15;;;19.70;92.80;;;;;;5069306;28;20068;-59
2022/07/02 10:02:23;;;;;;;5.53;0.73;;;19.90;91.70;;;;;;5069165;28;20078;-59
2022/07/02 10:04:54;;;;;;;6.30;0.82;;;19.90;88.90;;;;;;5069410;28;20052;-59
2022/07/02 10:07:21;;;;;;;1.58;0.55;;;20.00;91.50;;;;;;5067952;28;20052;-58
2022/07/02 10:09:49;;;;;;;1.30;0.60;;;20.10;90.70;;;;;;5067851;28;20045;-58
2022/07/02 10:12:17;;;;;;;3.97;0.57;;;20.30;89.20;;;;;;5069252;28;20102;-59
2022/07/02 10:14:45;;;;;;;3.13;0.40;;;20.40;89.10;;;;;;5069677;28;20088;-59
2022/07/02 10:17:13;;;;;;;4.03;1.13;;;20.60;87.00;;;;;;5068948;28;20047;-59
2022/07/02 10:19:40;;;;;;;1.50;0.60;;;20.80;84.20;;;;;;5069209;28;20048;-58
2022/07/02 10:22:07;;;;;;;6.60;1.20;;;21.10;87.60;;;;;;5068988;28;20045;-59
2022/07/02 10:24:34;;;;;;;4.60;0.77;;;21.40;82.30;;;;;;5068576;28;20045;-58
2022/07/02 10:27:01;;;;;;;1.27;0.40;;;21.50;80.70;;;;;;5067652;28;20135;-58
2022/07/02 10:29:28;;;;;;;3.25;0.70;;;21.40;80.40;;;;;;5068862;28;20305;-59
2022/07/02 10:32:03;;;;;;;7.47;2.30;;;21.60;83.60;;;;;;5067440;28;20533;-59
2022/07/02 10:34:51;;;;;;;4.57;1.30;;;21.80;78.60;;;;;;4717253;28;10000215;-60
2022/07/02 10:37:18;;;;;;;3.08;0.75;;;21.80;75.50;;;;;;5064323;28;20052;-59
2022/07/02 10:39:45;;;;;;;4.43;0.93;;;21.60;78.20;;;;;;5068889;28;20116;-59
2022/07/02 10:42:12;;;;;;;1.00;0.60;;;21.50;80.00;;;;;;5068584;28;20080;-58
2022/07/02 10:44:40;;;;;;;1.77;0.50;;;21.20;78.40;;;;;;5064824;28;20541;-60
2022/07/02 10:47:26;;;;;;;3.08;0.60;;;21.30;80.70;;;;;;5068662;28;20060;-62
2022/07/02 10:49:57;;;;;;;7.57;1.35;;;21.40;78.60;;;;;;5065272;28;20060;-59
2022/07/02 10:52:48;;;;;;;2.55;0.52;;;21.50;79.30;;;;;;5066850;28;20538;-59
2022/07/02 10:55:28;;;;;;;1.77;0.60;;;21.50;78.50;;;;;;5066599;28;20044;-61
2022/07/02 10:57:59;;;;;;;3.58;0.68;;;21.30;76.90;;;;;;5068102;28;20083;-60
2022/07/02 11:00:33;;;;;;;2.22;0.60;;;21.40;81.30;;;;;;5067983;28;20362;-59
2022/07/02 11:03:23;;;;;;;4.47;1.60;;;21.50;80.40;;;;;;5066707;28;20079;-61
2022/07/02 11:05:52;;;;;;;2.53;0.90;;;21.50;79.30;;;;;;5058197;28;20048;-59
2022/07/02 11:08:40;;;;;;;2.60;0.65;;;21.60;83.10;;;;;;5067972;28;20127;-59
2022/07/02 11:11:43;;;;;;;2.00;0.57;;;21.60;80.10;;;;;;5056151;28;20076;-59
2022/07/02 11:14:15;;;;;;;1.48;0.50;;;21.60;80.60;;;;;;5067384;28;20499;-60
2022/07/02 11:16:43;;;;;;;7.63;0.77;;;21.40;81.40;;;;;;5067709;28;20049;-59
2022/07/02 11:19:18;;;;;;;3.13;0.57;;;21.30;81.50;;;;;;5068101;28;20044;-59
2022/07/02 11:21:48;;;;;;;3.85;0.65;;;21.20;78.90;;;;;;5066625;28;20102;-58
2022/07/02 11:24:19;;;;;;;1.55;0.88;;;21.30;81.90;;;;;;5067596;28;20048;-59
2022/07/02 11:26:46;;;;;;;5.32;0.70;;;21.30;79.20;;;;;;5067621;28;20074;-59
2022/07/02 11:29:13;;;;;;;1.35;0.50;;;21.20;80.00;;;;;;5067436;28;20474;-59
2022/07/02 11:31:42;;;;;;;2.65;0.80;;;21.10;80.40;;;;;;5067634;28;20040;-59
2022/07/02 11:34:09;;;;;;;2.33;0.90;;;21.00;78.80;;;;;;5067603;28;20049;-58
2022/07/02 11:36:39;;;;;;;2.35;0.70;;;21.00;81.30;;;;;;5067545;28;20103;-58
2022/07/02 11:39:16;;;;;;;2.03;0.77;;;21.10;81.10;;;;;;5067337;28;20499;-60
2022/07/02 11:41:44;;;;;;;5.55;1.15;;;21.20;80.50;;;;;;5061025;28;20102;-59
2022/07/02 11:44:21;;;;;;;5.03;0.70;;;21.20;80.20;;;;;;5067469;28;20171;-59
2022/07/02 11:46:52;;;;;;;1.88;0.43;;;21.30;78.20;;;;;;5059937;28;20071;-59
2022/07/02 11:49:20;;;;;;;8.68;0.90;;;21.50;80.60;;;;;;5067214;28;20527;-59
2022/07/02 11:51:48;;;;;;;2.35;0.88;;;21.60;81.10;;;;;;5067647;28;20080;-60
2022/07/02 11:54:15;;;;;;;5.95;0.90;;;21.60;78.80;;;;;;5065975;28;20045;-60
2022/07/02 11:56:42;;;;;;;2.08;0.50;;;21.60;76.80;;;;;;5067018;28;20574;-59
2022/07/02 11:59:16;;;;;;;;;;;21.60;79.60;;;;;;5067028;28;20352;-58
2022/07/02 12:01:44;;;;;;;2.15;0.60;;;21.50;75.70;;;;;;5067074;28;19920;-59
2022/07/02 12:04:12;;;;;;;2.95;0.63;;;21.60;77.80;;;;;;5063272;28;20044;-60
2022/07/02 12:06:40;;;;;;;0.80;0.50;;;21.70;78.80;;;;;;5067373;28;20086;-59
2022/07/02 12:09:11;;;;;;;3.08;0.80;;;21.90;77.00;;;;;;5067208;28;20081;-59
2022/07/02 12:11:39;;;;;;;1.70;0.70;;;21.90;76.90;;;;;;5067238;28;20075;-58
2022/07/02 12:14:07;;;;;;;4.70;0.85;;;22.00;76.80;;;;;;5067011;28;20087;-59
2022/07/02 12:16:34;;;;;;;10.43;1.00;;;22.10;76.00;;;;;;5065431;28;20074;-59
2022/07/02 12:19:06;;;;;;;1.45;0.57;;;22.00;74.90;;;;;;5067055;28;20442;-59
2022/07/02 12:21:37;;;;;;;2.33;0.60;;;22.10;74.60;;;;;;5057545;28;20086;-59
2022/07/02 12:24:21;;;;;;;2.30;0.60;;;22.30;74.50;;;;;;5066965;28;20049;-59
2022/07/02 12:26:49;;;;;;;0.77;0.40;;;22.20;75.40;;;;;;5057072;28;20044;-59
2022/07/02 12:32:06;;;;;;;1.33;0.60;;;22.20;75.80;;;;;;5058907;28;20123;-58
2022/07/02 12:34:43;;;;;;;6.28;1.30;;;22.30;73.70;;;;;;5063117;28;20140;-61
2022/07/02 12:37:26;;;;;;;2.95;0.90;;;22.40;74.20;;;;;;5058414;28;20101;-58
2022/07/02 12:40:03;;;;;;;3.67;0.70;;;22.50;72.80;;;;;;5065683;28;20102;-59
2022/07/02 12:42:33;;;;;;;5.55;1.02;;;22.50;72.50;;;;;;5065194;28;20488;-59
2022/07/02 12:45:04;;;;;;;3.40;0.98;;;22.20;73.20;;;;;;5066515;28;20045;-59
2022/07/02 12:47:36;;;;;;;4.07;1.33;;;22.30;73.80;;;;;;5065130;28;20071;-60
2022/07/02 12:50:13;;;;;;;1.63;0.50;;;22.50;72.90;;;;;;5063036;28;20099;-59
2022/07/02 12:52:50;;;;;;;3.30;0.73;;;22.60;74.00;;;;;;5058150;28;20094;-59
2022/07/02 12:55:34;;;;;;;2.92;0.93;;;22.70;73.30;;;;;;5066306;28;20342;-59
2022/07/02 12:58:08;;;;;;;3.38;0.82;;;22.60;68.20;;;;;;5066472;28;20090;-59
2022/07/02 13:00:35;;;;;;;3.95;0.95;;;22.70;71.20;;;;;;5066300;28;20431;-60